createdAt,value
2023-04-19T00:01:28.635Z,100.00
2023-04-19T00:03:59.186Z,100.00
2023-04-19T00:06:30.695Z,100.00
2023-04-19T00:09:00.914Z,100.00
2023-04-19T00:11:31.154Z,100.00
2023-04-19T00:14:01.387Z,100.00
2023-04-19T00:16:34.281Z,100.00
2023-04-19T00:19:04.781Z,100.00
2023-04-19T00:21:34.922Z,100.00
2023-04-19T00:24:05.900Z,100.00
2023-04-19T00:26:36.047Z,100.00
2023-04-19T00:29:06.189Z,100.00
2023-04-19T00:31:40.062Z,100.00
2023-04-19T00:34:10.845Z,100.00
2023-04-19T00:36:41.167Z,100.00
2023-04-19T00:39:11.685Z,100.00
2023-04-19T00:41:42.171Z,100.00
2023-04-19T00:44:12.404Z,100.00
2023-04-19T00:46:46.584Z,100.00
2023-04-19T00:49:16.937Z,100.00
2023-04-19T00:51:47.241Z,100.00
2023-04-19T00:54:18.437Z,100.00
2023-04-19T00:56:49.596Z,100.00
2023-04-19T00:59:21.503Z,100.00
2023-04-19T01:01:54.852Z,100.00
2023-04-19T01:04:25.477Z,100.00
2023-04-19T01:06:58.673Z,100.00
2023-04-19T01:09:28.860Z,100.00
2023-04-19T01:12:01.942Z,100.00
2023-04-19T01:14:32.138Z,100.00
2023-04-19T01:17:04.910Z,100.00
2023-04-19T01:19:35.125Z,100.00
2023-04-19T01:22:07.219Z,100.00
2023-04-19T01:24:40.010Z,100.00
2023-04-19T01:27:12.906Z,100.00
2023-04-19T01:29:43.693Z,100.00
2023-04-19T01:32:14.028Z,100.00
2023-04-19T01:34:44.357Z,100.00
2023-04-19T01:37:14.540Z,100.00
2023-04-19T01:39:47.585Z,100.00
2023-04-19T01:42:17.779Z,100.00
2023-04-19T01:44:47.969Z,100.00
2023-04-19T01:47:18.203Z,100.00
2023-04-19T01:49:48.427Z,100.00
2023-04-19T01:52:19.462Z,100.00
2023-04-19T01:54:54.088Z,100.00
2023-04-19T01:57:24.257Z,100.00
2023-04-19T01:59:56.244Z,100.00
2023-04-19T02:02:26.687Z,100.00
2023-04-19T02:04:57.462Z,100.00
2023-04-19T02:07:27.816Z,100.00
2023-04-19T02:10:01.614Z,100.00
2023-04-19T02:12:31.927Z,100.00
2023-04-19T02:15:02.390Z,100.00
2023-04-19T02:17:37.715Z,100.00
2023-04-19T02:20:09.949Z,100.00
2023-04-19T02:22:40.131Z,100.00
2023-04-19T02:25:13.482Z,100.00
2023-04-19T02:27:43.626Z,100.00
2023-04-19T02:30:14.859Z,100.00
2023-04-19T02:32:45.063Z,100.00
2023-04-19T02:35:17.316Z,100.00
2023-04-19T02:37:47.961Z,100.00
2023-04-19T02:40:23.066Z,100.00
2023-04-19T02:42:53.954Z,100.00
2023-04-19T02:45:25.195Z,100.00
2023-04-19T02:47:59.728Z,100.00
2023-04-19T02:50:30.534Z,100.00
2023-04-19T02:53:01.531Z,100.00
2023-04-19T02:55:36.736Z,100.00
2023-04-19T02:58:16.254Z,100.00
2023-04-19T03:00:58.183Z,100.00
2023-04-19T03:03:28.599Z,100.00
2023-04-19T03:05:59.226Z,100.00
2023-04-19T03:08:29.953Z,100.00
2023-04-19T03:11:02.787Z,100.00
2023-04-19T03:13:34.457Z,100.00
2023-04-19T03:16:04.690Z,100.00
2023-04-19T03:18:36.623Z,100.00
2023-04-19T03:21:09.782Z,100.00
2023-04-19T03:24:00.232Z,100.00
2023-04-19T03:26:33.191Z,100.00
2023-04-19T03:29:04.774Z,100.00
2023-04-19T03:31:40.436Z,100.00
2023-04-19T03:34:14.964Z,100.00
2023-04-19T03:36:48.930Z,100.00
2023-04-19T03:39:19.266Z,100.00
2023-04-19T03:41:55.441Z,100.00
2023-04-19T03:44:30.261Z,100.00
2023-04-19T03:47:00.643Z,100.00
2023-04-19T03:49:34.141Z,100.00
2023-04-19T03:52:08.082Z,100.00
2023-04-19T03:54:38.653Z,100.00
2023-04-19T03:57:16.275Z,100.00
2023-04-19T03:59:46.513Z,100.00
2023-04-19T04:02:16.924Z,100.00
2023-04-19T04:04:47.429Z,100.00
2023-04-19T04:07:17.704Z,100.00
2023-04-19T04:09:48.684Z,100.00
2023-04-19T04:12:21.727Z,100.00
2023-04-19T04:14:52.456Z,100.00
2023-04-19T04:17:24.624Z,100.00
2023-04-19T04:19:55.781Z,100.00
2023-04-19T04:22:28.540Z,100.00
2023-04-19T04:24:59.547Z,100.00
2023-04-19T04:27:37.714Z,100.00
2023-04-19T04:30:10.383Z,100.00
2023-04-19T04:32:41.282Z,100.00
2023-04-19T04:35:13.686Z,100.00
2023-04-19T04:37:54.552Z,100.00
2023-04-19T04:40:25.172Z,100.00
2023-04-19T04:43:01.140Z,100.00
2023-04-19T04:45:32.433Z,100.00
2023-04-19T04:48:04.408Z,100.00
2023-04-19T04:50:35.153Z,100.00
2023-04-19T04:53:05.473Z,100.00
2023-04-19T04:55:37.313Z,100.00
2023-04-19T04:58:10.363Z,100.00
2023-04-19T05:01:04.162Z,100.00
2023-04-19T05:03:39.203Z,100.00
2023-04-19T05:06:13.830Z,100.00
2023-04-19T05:08:43.982Z,100.00
2023-04-19T05:11:26.072Z,100.00
2023-04-19T05:14:01.136Z,100.00
2023-04-19T05:16:31.692Z,100.00
2023-04-19T05:19:02.119Z,100.00
2023-04-19T05:21:37.189Z,100.00
2023-04-19T05:24:10.313Z,100.00
2023-04-19T05:26:41.079Z,100.00
2023-04-19T05:29:14.912Z,100.00
2023-04-19T05:31:51.598Z,100.00
2023-04-19T05:34:26.271Z,100.00
2023-04-19T05:36:58.263Z,100.00
2023-04-19T05:39:29.684Z,100.00
2023-04-19T05:42:02.102Z,100.00
2023-04-19T05:44:34.978Z,100.00
2023-04-19T05:47:05.174Z,100.00
2023-04-19T05:49:55.283Z,100.00
2023-04-19T05:52:33.478Z,100.00
2023-04-19T05:55:05.051Z,100.00
2023-04-19T05:57:37.097Z,100.00
2023-04-19T06:00:12.402Z,100.00
2023-04-19T06:03:03.435Z,100.00
2023-04-19T06:05:34.410Z,100.00
2023-04-19T06:08:05.182Z,100.00
2023-04-19T06:10:51.384Z,100.00
2023-04-19T06:13:24.622Z,100.00
2023-04-19T06:15:58.942Z,100.00
2023-04-19T06:18:29.106Z,100.00
2023-04-19T06:20:59.355Z,100.00
2023-04-19T06:23:29.512Z,100.00
2023-04-19T06:25:59.762Z,100.00
2023-04-19T06:28:29.993Z,100.00
2023-04-19T06:31:02.877Z,100.00
2023-04-19T06:33:33.162Z,100.00
2023-04-19T06:36:03.353Z,100.00
2023-04-19T06:38:33.652Z,100.00
2023-04-19T06:41:03.817Z,100.00
2023-04-19T06:43:34.018Z,100.00
2023-04-19T06:46:07.708Z,100.00
2023-04-19T06:48:38.124Z,100.00
2023-04-19T06:51:08.470Z,100.00
2023-04-19T06:53:38.688Z,100.00
2023-04-19T06:56:13.099Z,100.00
2023-04-19T06:58:43.221Z,100.00
2023-04-19T07:01:16.086Z,100.00
2023-04-19T07:03:48.878Z,100.00
2023-04-19T07:06:19.281Z,100.00
2023-04-19T07:08:50.443Z,100.00
2023-04-19T07:11:21.956Z,100.00
2023-04-19T07:13:53.406Z,100.00
2023-04-19T07:16:26.736Z,100.00
2023-04-19T07:18:57.606Z,100.00
2023-04-19T07:21:33.014Z,100.00
2023-04-19T07:24:03.378Z,100.00
2023-04-19T07:26:33.577Z,96.83
2023-04-19T07:29:04.345Z,98.44
2023-04-19T07:31:37.230Z,99.37
2023-04-19T07:34:07.415Z,91.79
2023-04-19T07:36:38.220Z,90.05
2023-04-19T07:39:08.472Z,88.27
2023-04-19T07:41:38.656Z,90.92
2023-04-19T07:44:09.076Z,83.03
2023-04-19T07:46:41.897Z,83.09
2023-04-19T07:49:12.130Z,83.79
2023-04-19T07:51:42.376Z,84.01
2023-04-19T07:54:12.793Z,89.00
2023-04-19T07:56:42.966Z,89.59
2023-04-19T07:59:13.332Z,87.73
2023-04-19T08:01:46.185Z,91.41
2023-04-19T08:04:18.351Z,88.77
2023-04-19T08:06:49.253Z,92.30
2023-04-19T08:09:19.581Z,93.57
2023-04-19T08:11:49.806Z,91.46
2023-04-19T08:14:32.426Z,90.43
2023-04-19T08:17:24.625Z,90.86
2023-04-19T08:19:58.556Z,88.87
2023-04-19T08:22:29.150Z,89.91
2023-04-19T08:24:59.289Z,89.75
2023-04-19T08:27:29.499Z,86.94
2023-04-19T08:29:59.749Z,88.26
2023-04-19T08:32:32.530Z,88.52
2023-04-19T08:35:03.893Z,85.12
2023-04-19T08:37:34.145Z,88.44
2023-04-19T08:40:05.565Z,87.40
2023-04-19T08:42:37.059Z,83.42
2023-04-19T08:45:26.833Z,81.61
2023-04-19T08:48:02.780Z,86.07
2023-04-19T08:50:38.881Z,88.45
2023-04-19T08:53:24.839Z,88.38
2023-04-19T08:56:12.941Z,85.80
2023-04-19T09:04:07.465Z,79.09
2023-04-19T09:06:47.009Z,80.18
2023-04-19T09:11:53.113Z,84.28
2023-04-19T09:14:25.148Z,77.02
2023-04-19T09:16:55.689Z,71.58
2023-04-19T09:19:28.623Z,77.94
2023-04-19T09:21:58.940Z,66.98
2023-04-19T09:27:15.306Z,71.26
2023-04-19T09:29:45.632Z,71.19
2023-04-19T09:32:15.834Z,72.43
2023-04-19T09:34:55.136Z,75.54
2023-04-19T09:39:59.699Z,76.51
2023-04-19T09:48:07.999Z,68.27
2023-04-19T09:50:59.914Z,73.83
2023-04-19T09:53:36.967Z,70.71
2023-04-19T09:56:07.407Z,71.94
2023-04-19T09:58:50.075Z,72.44
2023-04-19T10:01:23.845Z,74.21
2023-04-19T10:03:55.865Z,78.53
2023-04-19T10:06:45.911Z,78.66
2023-04-19T10:09:24.236Z,72.07
2023-04-19T10:12:04.728Z,74.89
2023-04-19T10:14:47.203Z,80.79
2023-04-19T10:17:17.614Z,73.40
2023-04-19T10:19:49.581Z,71.68
2023-04-19T10:22:22.694Z,68.55
2023-04-19T10:25:14.540Z,75.40
2023-04-19T10:27:47.161Z,67.07
2023-04-19T10:30:21.923Z,70.53
2023-04-19T10:32:59.431Z,75.72
2023-04-19T10:35:32.538Z,63.61
2023-04-19T10:38:13.363Z,72.47
2023-04-19T10:41:01.031Z,73.80
2023-04-19T10:43:33.243Z,69.07
2023-04-19T10:46:05.232Z,71.00
2023-04-19T10:48:55.544Z,72.68
2023-04-19T10:51:29.317Z,72.50
2023-04-19T10:54:03.514Z,71.11
2023-04-19T10:57:02.927Z,70.75
2023-04-19T10:59:33.845Z,71.58
2023-04-19T11:02:05.380Z,71.22
2023-04-19T11:05:05.720Z,71.87
2023-04-19T11:07:41.727Z,69.66
2023-04-19T11:10:14.933Z,67.03
2023-04-19T11:12:47.093Z,71.52
2023-04-19T11:15:17.628Z,71.19
2023-04-19T11:17:52.771Z,72.31
2023-04-19T11:20:28.197Z,70.76
2023-04-19T11:23:01.190Z,75.10
2023-04-19T11:25:34.335Z,80.63
2023-04-19T11:28:04.567Z,74.76
2023-04-19T11:30:36.014Z,78.24
2023-04-19T11:33:06.525Z,73.11
2023-04-19T11:35:37.042Z,75.99
2023-04-19T11:38:07.628Z,77.69
2023-04-19T11:40:40.662Z,72.97
2023-04-19T11:43:11.165Z,78.20
2023-04-19T11:45:42.115Z,77.14
2023-04-19T11:48:17.529Z,72.48
2023-04-19T11:50:50.290Z,73.80
2023-04-19T11:53:22.170Z,78.31
2023-04-19T11:55:56.467Z,73.01
2023-04-19T11:58:33.302Z,75.58
2023-04-19T12:01:09.345Z,75.65
2023-04-19T12:03:45.224Z,74.79
2023-04-19T12:06:17.355Z,71.86
2023-04-19T12:08:50.082Z,72.26
2023-04-19T12:11:24.643Z,71.31
2023-04-19T12:14:12.393Z,79.15
2023-04-19T12:16:43.077Z,70.78
2023-04-19T12:19:19.908Z,71.07
2023-04-19T12:21:50.909Z,69.25
2023-04-19T12:24:21.164Z,72.53
2023-04-19T12:27:03.273Z,75.94
2023-04-19T12:29:34.029Z,78.79
2023-04-19T12:32:04.486Z,79.62
2023-04-19T12:34:34.721Z,84.13
2023-04-19T12:37:05.550Z,85.07
2023-04-19T12:39:35.868Z,84.28
2023-04-19T12:42:09.034Z,83.85
2023-04-19T12:44:39.240Z,83.63
2023-04-19T12:47:09.411Z,82.44
2023-04-19T12:49:39.541Z,79.49
2023-04-19T12:52:10.322Z,73.93
2023-04-19T12:54:40.542Z,74.86
2023-04-19T12:57:13.363Z,77.66
2023-04-19T12:59:43.497Z,75.58
2023-04-19T13:02:13.814Z,74.73
2023-04-19T13:04:44.180Z,78.21
2023-04-19T13:07:14.428Z,80.13
2023-04-19T13:09:44.746Z,81.20
2023-04-19T13:12:17.837Z,84.91
2023-04-19T13:14:51.750Z,88.35
2023-04-19T13:17:22.414Z,84.63
2023-04-19T13:19:52.832Z,85.48
2023-04-19T13:22:23.084Z,85.29
2023-04-19T13:24:53.306Z,86.04
2023-04-19T13:27:26.112Z,86.72
2023-04-19T13:29:59.389Z,86.33
2023-04-19T13:32:29.703Z,85.36
2023-04-19T13:34:59.967Z,88.28
2023-04-19T13:37:30.224Z,91.20
2023-04-19T13:40:11.113Z,91.45
2023-04-19T13:42:50.924Z,90.36
2023-04-19T13:45:21.627Z,87.08
2023-04-19T13:47:51.871Z,90.58
2023-04-19T13:50:22.279Z,87.26
2023-04-19T13:52:52.482Z,86.56
2023-04-19T13:55:22.671Z,83.97
2023-04-19T13:57:55.689Z,83.37
2023-04-19T14:00:26.204Z,86.41
2023-04-19T14:02:58.531Z,87.06
2023-04-19T14:05:28.773Z,90.69
2023-04-19T14:07:59.160Z,93.24
2023-04-19T14:10:29.538Z,92.23
2023-04-19T14:13:02.345Z,92.50
2023-04-19T14:15:32.918Z,93.40
2023-04-19T14:18:03.756Z,94.76
2023-04-19T14:20:34.037Z,96.11
2023-04-19T14:23:04.669Z,94.34
2023-04-19T14:25:36.961Z,90.77
2023-04-19T14:28:09.943Z,93.97
2023-04-19T14:30:40.456Z,93.53
2023-04-19T14:33:13.808Z,94.15
2023-04-19T14:35:45.017Z,92.33
2023-04-19T14:38:15.191Z,98.86
2023-04-19T14:40:46.204Z,96.28
2023-04-19T14:43:20.721Z,100.00
2023-04-19T14:45:52.270Z,100.00
2023-04-19T14:48:22.950Z,100.00
2023-04-19T14:50:53.176Z,100.00
2023-04-19T14:53:23.451Z,100.00
2023-04-19T14:55:53.627Z,100.00
2023-04-19T14:58:26.474Z,100.00
2023-04-19T15:00:57.100Z,100.00
2023-04-19T15:03:27.642Z,100.00
2023-04-19T15:06:01.105Z,100.00
2023-04-19T15:08:31.327Z,100.00
2023-04-19T15:11:01.548Z,100.00
2023-04-19T15:13:35.727Z,100.00
2023-04-19T15:16:07.651Z,100.00
2023-04-19T15:18:38.061Z,100.00
2023-04-19T15:21:08.945Z,100.00
2023-04-19T15:23:39.172Z,100.00
2023-04-19T15:26:09.402Z,100.00
2023-04-19T15:28:42.408Z,100.00
2023-04-19T15:31:12.801Z,100.00
2023-04-19T15:33:43.242Z,100.00
2023-04-19T15:36:13.582Z,100.00
2023-04-19T15:38:44.079Z,100.00
2023-04-19T15:41:14.531Z,100.00
2023-04-19T15:43:47.312Z,100.00
2023-04-19T15:46:18.317Z,99.52
2023-04-19T15:48:49.229Z,100.00
2023-04-19T15:51:19.784Z,100.00
2023-04-19T15:53:50.025Z,100.00
2023-04-19T15:56:20.253Z,100.00
2023-04-19T15:58:53.153Z,100.00
2023-04-19T16:01:23.570Z,100.00
2023-04-19T16:03:53.985Z,100.00
2023-04-19T16:06:25.064Z,100.00
2023-04-19T16:08:55.259Z,100.00
2023-04-19T16:11:25.536Z,100.00
2023-04-19T16:13:58.374Z,100.00
2023-04-19T16:16:33.245Z,100.00
2023-04-19T16:19:04.066Z,100.00
2023-04-19T16:21:36.109Z,100.00
2023-04-19T16:24:06.316Z,100.00
2023-04-19T16:26:36.710Z,100.00
2023-04-19T16:29:09.482Z,100.00
2023-04-19T16:31:39.769Z,100.00
2023-04-19T16:34:10.143Z,100.00
2023-04-19T16:36:40.656Z,100.00
2023-04-19T16:39:10.902Z,100.00
2023-04-19T16:41:41.751Z,100.00
2023-04-19T16:44:14.758Z,100.00
2023-04-19T16:46:45.814Z,100.00
2023-04-19T16:49:16.296Z,100.00
2023-04-19T16:51:46.631Z,100.00
2023-04-19T16:54:16.760Z,100.00
2023-04-19T16:56:46.988Z,100.00
2023-04-19T16:59:19.850Z,100.00
2023-04-19T17:01:50.174Z,100.00
2023-04-19T17:04:20.566Z,100.00
2023-04-19T17:06:52.056Z,100.00
2023-04-19T17:09:22.280Z,100.00
2023-04-19T17:11:52.488Z,100.00
2023-04-19T17:14:25.613Z,100.00
2023-04-19T17:16:55.770Z,100.00
2023-04-19T17:19:25.985Z,100.00
2023-04-19T17:21:56.307Z,100.00
2023-04-19T17:24:26.524Z,100.00
2023-04-19T17:26:57.039Z,100.00
2023-04-19T17:29:30.139Z,100.00
2023-04-19T17:32:00.504Z,100.00
2023-04-19T17:34:30.876Z,100.00
2023-04-19T17:37:02.093Z,100.00
2023-04-19T17:39:32.360Z,100.00
2023-04-19T17:42:02.687Z,100.00
2023-04-19T17:44:35.448Z,100.00
2023-04-19T17:47:05.860Z,100.00
2023-04-19T17:49:36.214Z,100.00
2023-04-19T17:52:07.942Z,100.00
2023-04-19T17:54:38.155Z,100.00
2023-04-19T17:57:08.461Z,100.00
2023-04-19T17:59:41.381Z,100.00
2023-04-19T18:02:11.770Z,100.00
2023-04-19T18:04:44.788Z,100.00
2023-04-19T18:07:15.097Z,100.00
2023-04-19T18:09:45.345Z,100.00
2023-04-19T18:12:15.573Z,100.00
2023-04-19T18:14:48.375Z,100.00
2023-04-19T18:17:18.663Z,100.00
2023-04-19T18:19:49.394Z,100.00
2023-04-19T18:22:19.582Z,100.00
2023-04-19T18:24:51.449Z,100.00
2023-04-19T18:27:21.768Z,100.00
2023-04-19T18:29:57.659Z,100.00
2023-04-19T18:32:28.914Z,100.00
2023-04-19T18:34:59.112Z,100.00
2023-04-19T18:37:29.334Z,100.00
2023-04-19T18:39:59.603Z,100.00
2023-04-19T18:42:29.910Z,100.00
2023-04-19T18:45:03.810Z,100.00
2023-04-19T18:47:34.202Z,100.00
2023-04-19T18:50:06.702Z,100.00
2023-04-19T18:52:38.237Z,100.00
2023-04-19T18:55:10.975Z,100.00
2023-04-19T18:57:41.676Z,100.00
2023-04-19T19:00:15.774Z,100.00
2023-04-19T19:02:46.126Z,100.00
2023-04-19T19:05:17.020Z,100.00
2023-04-19T19:07:47.459Z,100.00
2023-04-19T19:10:21.880Z,100.00
2023-04-19T19:12:53.111Z,100.00
2023-04-19T19:15:26.204Z,100.00
2023-04-19T19:17:56.444Z,100.00
2023-04-19T19:20:29.840Z,100.00
2023-04-19T19:23:00.160Z,100.00
2023-04-19T19:25:30.466Z,100.00
2023-04-19T19:30:40.280Z,100.00
2023-04-19T19:33:11.359Z,100.00
2023-04-19T19:35:41.614Z,100.00
2023-04-19T19:38:11.857Z,100.00
2023-04-19T19:41:22.246Z,100.00
2023-04-19T19:43:32.642Z,100.00
2023-04-19T19:46:06.676Z,100.00
2023-04-19T19:48:40.757Z,100.00
2023-04-19T19:51:44.309Z,100.00
2023-04-19T19:54:02.989Z,100.00
2023-04-19T19:56:34.881Z,100.00
2023-04-19T19:59:05.349Z,100.00
2023-04-19T20:01:38.492Z,100.00
2023-04-19T20:04:09.973Z,100.00
2023-04-19T20:09:13.746Z,100.00
2023-04-19T20:11:44.379Z,100.00
2023-04-19T20:14:14.616Z,100.00
2023-04-19T20:16:47.501Z,100.00
2023-04-19T20:19:18.559Z,100.00
2023-04-19T20:21:49.139Z,100.00
2023-04-19T20:24:19.393Z,100.00
2023-04-19T20:26:49.631Z,100.00
2023-04-19T20:29:19.873Z,100.00
2023-04-19T20:31:53.051Z,100.00
2023-04-19T20:34:23.290Z,100.00
2023-04-19T20:36:53.521Z,100.00
2023-04-19T20:39:23.918Z,100.00
2023-04-19T20:41:54.202Z,100.00
2023-04-19T20:44:24.897Z,100.00
2023-04-19T20:46:57.839Z,100.00
2023-04-19T20:49:28.066Z,100.00
2023-04-19T20:51:58.241Z,100.00
2023-04-19T20:54:28.488Z,100.00
2023-04-19T20:57:05.987Z,100.00
2023-04-19T20:59:36.453Z,100.00
2023-04-19T21:02:09.453Z,100.00
2023-04-19T21:04:39.697Z,100.00
2023-04-19T21:07:09.941Z,100.00
2023-04-19T21:09:40.192Z,100.00
2023-04-19T21:12:10.764Z,100.00
2023-04-19T21:14:40.960Z,100.00
2023-04-19T21:17:13.981Z,100.00
2023-04-19T21:19:44.123Z,100.00
2023-04-19T21:22:14.469Z,100.00
2023-04-19T21:24:44.734Z,100.00
2023-04-19T21:27:14.900Z,100.00
2023-04-19T21:29:45.116Z,100.00
2023-04-19T21:32:18.053Z,100.00
2023-04-19T21:34:48.349Z,100.00
2023-04-19T21:37:19.981Z,100.00
2023-04-19T21:39:50.634Z,100.00
2023-04-19T21:42:21.335Z,100.00
2023-04-19T21:44:51.549Z,100.00
2023-04-19T21:47:24.386Z,100.00
2023-04-19T21:49:54.555Z,100.00
2023-04-19T21:52:24.758Z,100.00
2023-04-19T21:54:55.012Z,100.00
2023-04-19T21:57:27.262Z,100.00
2023-04-19T21:59:57.572Z,100.00
2023-04-19T22:02:30.574Z,100.00
2023-04-19T22:05:02.032Z,100.00
2023-04-19T22:07:33.500Z,100.00
2023-04-19T22:10:04.034Z,100.00
2023-04-19T22:12:34.163Z,100.00
2023-04-19T22:15:04.656Z,100.00
2023-04-19T22:17:37.483Z,100.00
2023-04-19T22:20:13.056Z,100.00
2023-04-19T22:22:43.246Z,100.00
2023-04-19T22:25:13.908Z,100.00
2023-04-19T22:27:45.556Z,100.00
2023-04-19T22:30:15.945Z,100.00
2023-04-19T22:32:48.730Z,100.00
2023-04-19T22:35:20.707Z,100.00
2023-04-19T22:37:52.418Z,100.00
2023-04-19T22:40:22.633Z,100.00
2023-04-19T22:42:52.807Z,100.00
2023-04-19T22:45:23.281Z,100.00
2023-04-19T22:47:56.222Z,100.00
2023-04-19T22:50:26.501Z,100.00
2023-04-19T22:52:56.673Z,100.00
2023-04-19T22:55:27.270Z,100.00
2023-04-19T22:57:57.488Z,100.00
2023-04-19T23:00:28.050Z,100.00
2023-04-19T23:03:01.419Z,100.00
2023-04-19T23:05:31.795Z,100.00
2023-04-19T23:08:04.185Z,100.00
2023-04-19T23:10:38.368Z,100.00
2023-04-19T23:13:10.409Z,100.00
2023-04-19T23:15:41.423Z,100.00
2023-04-19T23:18:14.563Z,100.00
2023-04-19T23:20:44.722Z,100.00
2023-04-19T23:23:14.919Z,100.00
2023-04-19T23:25:45.568Z,100.00
2023-04-19T23:28:15.716Z,100.00
2023-04-19T23:30:46.114Z,100.00
2023-04-19T23:33:18.973Z,100.00
2023-04-19T23:35:49.349Z,100.00
2023-04-19T23:38:19.533Z,100.00
2023-04-19T23:40:49.706Z,100.00
2023-04-19T23:43:19.829Z,100.00
2023-04-19T23:45:50.181Z,100.00
2023-04-19T23:48:23.014Z,100.00
2023-04-19T23:50:53.175Z,100.00
2023-04-19T23:53:23.359Z,100.00
2023-04-19T23:55:53.597Z,100.00
2023-04-19T23:58:23.921Z,100.00
